sensor_id;sensor_type;location;lat;lon;timestamp;pressure;altitude;pressure_sealevel;temperature;humidity
57763;BME280;43592;42.524;12.052;2023-05-31T00:01:11;96715.75;;;11.89;100.00
57763;BME280;43592;42.524;12.052;2023-05-31T00:03:38;96711.50;;;11.88;100.00
57763;BME280;43592;42.524;12.052;2023-05-31T00:06:06;96711.06;;;11.86;100.00
57763;BME280;43592;42.524;12.052;2023-05-31T00:08:32;96712.09;;;11.81;100.00
57763;BME280;43592;42.524;12.052;2023-05-31T00:10:58;96711.19;;;11.77;100.00
57763;BME280;43592;42.524;12.052;2023-05-31T00:13:23;96717.94;;;11.71;100.00
57763;BME280;43592;42.524;12.052;2023-05-31T00:15:49;96715.94;;;11.68;100.00
57763;BME280;43592;42.524;12.052;2023-05-31T00:18:14;96719.31;;;11.65;100.00
57763;BME280;43592;42.524;12.052;2023-05-31T00:20:40;96717.78;;;11.64;100.00
57763;BME280;43592;42.524;12.052;2023-05-31T00:23:05;96715.09;;;11.64;100.00
57763;BME280;43592;42.524;12.052;2023-05-31T00:25:31;96725.13;;;11.67;100.00
57763;BME280;43592;42.524;12.052;2023-05-31T00:27:56;96713.72;;;11.70;100.00
57763;BME280;43592;42.524;12.052;2023-05-31T00:30:22;96716.16;;;11.75;100.00
57763;BME280;43592;42.524;12.052;2023-05-31T00:32:47;96717.44;;;11.81;100.00
57763;BME280;43592;42.524;12.052;2023-05-31T00:35:13;96718.78;;;11.87;100.00
57763;BME280;43592;42.524;12.052;2023-05-31T00:37:38;96710.13;;;11.94;100.00
57763;BME280;43592;42.524;12.052;2023-05-31T00:40:04;96707.19;;;11.99;100.00
57763;BME280;43592;42.524;12.052;2023-05-31T00:42:31;96718.78;;;12.03;100.00
57763;BME280;43592;42.524;12.052;2023-05-31T00:44:57;96716.53;;;12.05;100.00
57763;BME280;43592;42.524;12.052;2023-05-31T00:47:23;96717.31;;;12.06;100.00
57763;BME280;43592;42.524;12.052;2023-05-31T00:49:48;96716.53;;;12.05;100.00
57763;BME280;43592;42.524;12.052;2023-05-31T00:52:14;96714.66;;;12.06;100.00
57763;BME280;43592;42.524;12.052;2023-05-31T00:54:40;96719.22;;;12.05;100.00
57763;BME280;43592;42.524;12.052;2023-05-31T00:57:05;96713.06;;;12.05;100.00
57763;BME280;43592;42.524;12.052;2023-05-31T00:59:31;96713.84;;;12.05;100.00
57763;BME280;43592;42.524;12.052;2023-05-31T01:01:57;96712.28;;;12.04;100.00
57763;BME280;43592;42.524;12.052;2023-05-31T01:04:23;96718.44;;;12.05;100.00
57763;BME280;43592;42.524;12.052;2023-05-31T01:06:49;96721.13;;;12.05;100.00
57763;BME280;43592;42.524;12.052;2023-05-31T01:09:16;96717.66;;;12.04;100.00
57763;BME280;43592;42.524;12.052;2023-05-31T01:14:32;96713.16;;;12.08;100.00
57763;BME280;43592;42.524;12.052;2023-05-31T01:20:00;96717.56;;;12.17;100.00
57763;BME280;43592;42.524;12.052;2023-05-31T01:27:55;96723.19;;;12.27;100.00
57763;BME280;43592;42.524;12.052;2023-05-31T01:30:21;96723.25;;;12.31;100.00
57763;BME280;43592;42.524;12.052;2023-05-31T01:32:47;96719.88;;;12.34;100.00
57763;BME280;43592;42.524;12.052;2023-05-31T01:35:14;96724.59;;;12.37;100.00
57763;BME280;43592;42.524;12.052;2023-05-31T01:37:40;96728.44;;;12.40;100.00
57763;BME280;43592;42.524;12.052;2023-05-31T01:40:05;96721.59;;;12.42;100.00
57763;BME280;43592;42.524;12.052;2023-05-31T01:42:32;96713.22;;;12.44;100.00
57763;BME280;43592;42.524;12.052;2023-05-31T01:44:58;96714.00;;;12.44;100.00
57763;BME280;43592;42.524;12.052;2023-05-31T01:47:24;96710.16;;;12.45;100.00
57763;BME280;43592;42.524;12.052;2023-05-31T01:49:49;96714.75;;;12.45;100.00
57763;BME280;43592;42.524;12.052;2023-05-31T01:52:15;96717.44;;;12.45;100.00
57763;BME280;43592;42.524;12.052;2023-05-31T01:54:42;96708.63;;;12.44;100.00
57763;BME280;43592;42.524;12.052;2023-05-31T01:57:10;96726.63;;;12.44;100.00
57763;BME280;43592;42.524;12.052;2023-05-31T01:59:35;96712.44;;;12.43;100.00
57763;BME280;43592;42.524;12.052;2023-05-31T02:02:02;96714.34;;;12.43;100.00
57763;BME280;43592;42.524;12.052;2023-05-31T02:04:28;96712.78;;;12.42;100.00
57763;BME280;43592;42.524;12.052;2023-05-31T02:06:54;96714.69;;;12.41;100.00
57763;BME280;43592;42.524;12.052;2023-05-31T02:09:20;96716.25;;;12.42;100.00
57763;BME280;43592;42.524;12.052;2023-05-31T02:11:45;96723.53;;;12.42;100.00
57763;BME280;43592;42.524;12.052;2023-05-31T02:14:11;96719.72;;;12.43;100.00
57763;BME280;43592;42.524;12.052;2023-05-31T02:16:36;96722.81;;;12.45;100.00
57763;BME280;43592;42.524;12.052;2023-05-31T02:19:02;96714.44;;;12.46;100.00
57763;BME280;43592;42.524;12.052;2023-05-31T02:21:28;96712.53;;;12.47;100.00
57763;BME280;43592;42.524;12.052;2023-05-31T02:23:54;96725.59;;;12.48;100.00
57763;BME280;43592;42.524;12.052;2023-05-31T02:26:19;96717.97;;;12.50;100.00
57763;BME280;43592;42.524;12.052;2023-05-31T02:28:47;96713.38;;;12.51;100.00
57763;BME280;43592;42.524;12.052;2023-05-31T02:31:12;96714.94;;;12.52;100.00
57763;BME280;43592;42.524;12.052;2023-05-31T02:33:39;96719.16;;;12.53;100.00
57763;BME280;43592;42.524;12.052;2023-05-31T02:36:06;96725.69;;;12.52;100.00
57763;BME280;43592;42.524;12.052;2023-05-31T02:38:31;96717.63;;;12.52;100.00
57763;BME280;43592;42.524;12.052;2023-05-31T02:40:57;96721.09;;;12.52;100.00
57763;BME280;43592;42.524;12.052;2023-05-31T02:43:22;96725.69;;;12.52;100.00
57763;BME280;43592;42.524;12.052;2023-05-31T02:45:48;96726.09;;;12.54;100.00
57763;BME280;43592;42.524;12.052;2023-05-31T02:48:13;96722.63;;;12.53;100.00
57763;BME280;43592;42.524;12.052;2023-05-31T02:50:39;96724.97;;;12.55;100.00
57763;BME280;43592;42.524;12.052;2023-05-31T02:53:05;96720.03;;;12.57;100.00
57763;BME280;43592;42.524;12.052;2023-05-31T02:55:31;96723.91;;;12.59;100.00
57763;BME280;43592;42.524;12.052;2023-05-31T02:57:56;96714.03;;;12.64;100.00
57763;BME280;43592;42.524;12.052;2023-05-31T03:00:23;96714.13;;;12.67;100.00
57763;BME280;43592;42.524;12.052;2023-05-31T03:02:49;96716.88;;;12.71;100.00
57763;BME280;43592;42.524;12.052;2023-05-31T03:05:15;96723.13;;;12.75;100.00
57763;BME280;43592;42.524;12.052;2023-05-31T03:07:41;96718.50;;;12.75;100.00
57763;BME280;43592;42.524;12.052;2023-05-31T03:10:07;96718.50;;;12.75;100.00
57763;BME280;43592;42.524;12.052;2023-05-31T03:12:34;96718.88;;;12.74;100.00
57763;BME280;43592;42.524;12.052;2023-05-31T03:14:59;96720.00;;;12.73;100.00
57763;BME280;43592;42.524;12.052;2023-05-31T03:17:25;96723.81;;;12.72;100.00
57763;BME280;43592;42.524;12.052;2023-05-31T03:19:50;96722.59;;;12.69;100.00
57763;BME280;43592;42.524;12.052;2023-05-31T03:22:16;96721.41;;;12.67;100.00
57763;BME280;43592;42.524;12.052;2023-05-31T03:24:42;96716.72;;;12.64;100.00
57763;BME280;43592;42.524;12.052;2023-05-31T03:27:07;96710.59;;;12.63;100.00
57763;BME280;43592;42.524;12.052;2023-05-31T03:29:33;96716.28;;;12.62;100.00
57763;BME280;43592;42.524;12.052;2023-05-31T03:31:59;96727.03;;;12.62;100.00
57763;BME280;43592;42.524;12.052;2023-05-31T03:34:24;96722.09;;;12.64;100.00
57763;BME280;43592;42.524;12.052;2023-05-31T03:36:50;96719.06;;;12.65;100.00
57763;BME280;43592;42.524;12.052;2023-05-31T03:39:16;96718.38;;;12.68;100.00
57763;BME280;43592;42.524;12.052;2023-05-31T03:41:41;96721.13;;;12.72;100.00
57763;BME280;43592;42.524;12.052;2023-05-31T03:44:07;96723.13;;;12.75;100.00
57763;BME280;43592;42.524;12.052;2023-05-31T03:46:32;96721.63;;;12.77;100.00
57763;BME280;43592;42.524;12.052;2023-05-31T03:48:58;96719.38;;;12.79;100.00
57763;BME280;43592;42.524;12.052;2023-05-31T03:51:23;96712.88;;;12.80;100.00
57763;BME280;43592;42.524;12.052;2023-05-31T03:53:49;96715.19;;;12.82;100.00
57763;BME280;43592;42.524;12.052;2023-05-31T03:56:14;96717.53;;;12.84;100.00
57763;BME280;43592;42.524;12.052;2023-05-31T03:58:40;96715.63;;;12.84;100.00
57763;BME280;43592;42.524;12.052;2023-05-31T04:01:06;96710.25;;;12.84;100.00
57763;BME280;43592;42.524;12.052;2023-05-31T04:03:31;96708.34;;;12.85;100.00
57763;BME280;43592;42.524;12.052;2023-05-31T04:05:57;96712.16;;;12.84;100.00
57763;BME280;43592;42.524;12.052;2023-05-31T04:08:22;96702.56;;;12.83;100.00
57763;BME280;43592;42.524;12.052;2023-05-31T04:10:48;96709.06;;;12.81;100.00
57763;BME280;43592;42.524;12.052;2023-05-31T04:13:14;96707.06;;;12.78;100.00
57763;BME280;43592;42.524;12.052;2023-05-31T04:15:39;96704.38;;;12.78;100.00
57763;BME280;43592;42.524;12.052;2023-05-31T04:18:05;96712.81;;;12.77;100.00
57763;BME280;43592;42.524;12.052;2023-05-31T04:20:30;96707.00;;;12.75;100.00
57763;BME280;43592;42.524;12.052;2023-05-31T04:22:56;96714.28;;;12.74;100.00
57763;BME280;43592;42.524;12.052;2023-05-31T04:25:21;96713.06;;;12.72;100.00
57763;BME280;43592;42.524;12.052;2023-05-31T04:27:47;96709.63;;;12.71;100.00
57763;BME280;43592;42.524;12.052;2023-05-31T04:30:14;96723.81;;;12.72;100.00
57763;BME280;43592;42.524;12.052;2023-05-31T04:32:40;96724.25;;;12.74;100.00
57763;BME280;43592;42.524;12.052;2023-05-31T04:35:06;96720.06;;;12.76;100.00
57763;BME280;43592;42.524;12.052;2023-05-31T04:37:33;96725.88;;;12.78;100.00
57763;BME280;43592;42.524;12.052;2023-05-31T04:40:00;96722.47;;;12.81;100.00
57763;BME280;43592;42.524;12.052;2023-05-31T04:42:29;96721.88;;;12.88;100.00
57763;BME280;43592;42.524;12.052;2023-05-31T04:44:55;96722.72;;;12.92;100.00
57763;BME280;43592;42.524;12.052;2023-05-31T04:47:26;96720.53;;;12.98;100.00
57763;BME280;43592;42.524;12.052;2023-05-31T04:49:54;96721.47;;;13.06;100.00
57763;BME280;43592;42.524;12.052;2023-05-31T04:52:28;96736.59;;;13.14;100.00
57763;BME280;43592;42.524;12.052;2023-05-31T04:54:57;96740.19;;;13.21;100.00
57763;BME280;43592;42.524;12.052;2023-05-31T04:57:24;96735.00;;;13.29;100.00
57763;BME280;43592;42.524;12.052;2023-05-31T04:59:50;96742.84;;;13.37;100.00
57763;BME280;43592;42.524;12.052;2023-05-31T05:02:17;96741.09;;;13.45;100.00
57763;BME280;43592;42.524;12.052;2023-05-31T05:04:43;96747.72;;;13.51;100.00
57763;BME280;43592;42.524;12.052;2023-05-31T05:07:09;96749.31;;;13.56;100.00
57763;BME280;43592;42.524;12.052;2023-05-31T05:09:34;96742.47;;;13.58;100.00
57763;BME280;43592;42.524;12.052;2023-05-31T05:12:00;96750.25;;;13.63;100.00
57763;BME280;43592;42.524;12.052;2023-05-31T05:14:26;96744.16;;;13.66;100.00
57763;BME280;43592;42.524;12.052;2023-05-31T05:16:51;96746.50;;;13.68;100.00
57763;BME280;43592;42.524;12.052;2023-05-31T05:19:16;96751.94;;;13.72;100.00
57763;BME280;43592;42.524;12.052;2023-05-31T05:21:42;96751.22;;;13.75;100.00
57763;BME280;43592;42.524;12.052;2023-05-31T05:24:07;96761.25;;;13.78;100.00
57763;BME280;43592;42.524;12.052;2023-05-31T05:26:33;96761.31;;;13.81;100.00
57763;BME280;43592;42.524;12.052;2023-05-31T05:28:59;96745.66;;;13.87;100.00
57763;BME280;43592;42.524;12.052;2023-05-31T05:31:24;96752.34;;;13.93;100.00
57763;BME280;43592;42.524;12.052;2023-05-31T05:33:50;96744.44;;;14.04;100.00
57763;BME280;43592;42.524;12.052;2023-05-31T05:36:15;96748.44;;;14.13;100.00
57763;BME280;43592;42.524;12.052;2023-05-31T05:38:41;96749.81;;;14.27;100.00
57763;BME280;43592;42.524;12.052;2023-05-31T05:41:06;96751.59;;;14.42;100.00
57763;BME280;43592;42.524;12.052;2023-05-31T05:43:36;96755.69;;;14.55;100.00
57763;BME280;43592;42.524;12.052;2023-05-31T05:46:01;96765.09;;;14.69;100.00
57763;BME280;43592;42.524;12.052;2023-05-31T05:48:27;96762.94;;;14.78;100.00
57763;BME280;43592;42.524;12.052;2023-05-31T05:50:52;96765.75;;;14.89;100.00
57763;BME280;43592;42.524;12.052;2023-05-31T05:53:18;96762.03;;;14.97;100.00
57763;BME280;43592;42.524;12.052;2023-05-31T05:55:53;96757.53;;;15.04;100.00
57763;BME280;43592;42.524;12.052;2023-05-31T05:58:19;96760.31;;;15.12;100.00
57763;BME280;43592;42.524;12.052;2023-05-31T06:00:45;96755.47;;;15.24;100.00
57763;BME280;43592;42.524;12.052;2023-05-31T06:03:11;96757.56;;;15.38;100.00
57763;BME280;43592;42.524;12.052;2023-05-31T06:05:37;96762.34;;;15.52;100.00
57763;BME280;43592;42.524;12.052;2023-05-31T06:08:02;96769.44;;;15.67;100.00
57763;BME280;43592;42.524;12.052;2023-05-31T06:10:28;96766.56;;;15.83;100.00
57763;BME280;43592;42.524;12.052;2023-05-31T06:12:54;96767.56;;;16.05;100.00
57763;BME280;43592;42.524;12.052;2023-05-31T06:15:19;96757.00;;;16.34;100.00
57763;BME280;43592;42.524;12.052;2023-05-31T06:17:45;96761.13;;;16.69;100.00
57763;BME280;43592;42.524;12.052;2023-05-31T06:20:13;96766.00;;;17.04;100.00
57763;BME280;43592;42.524;12.052;2023-05-31T06:22:38;96762.28;;;17.37;100.00
57763;BME280;43592;42.524;12.052;2023-05-31T06:25:04;96764.06;;;17.99;100.00
57763;BME280;43592;42.524;12.052;2023-05-31T06:27:30;96746.28;;;18.91;100.00
57763;BME280;43592;42.524;12.052;2023-05-31T06:29:55;96748.69;;;19.77;100.00
57763;BME280;43592;42.524;12.052;2023-05-31T06:32:27;96739.28;;;20.45;100.00
57763;BME280;43592;42.524;12.052;2023-05-31T06:34:53;96729.75;;;21.08;100.00
57763;BME280;43592;42.524;12.052;2023-05-31T06:37:19;96745.78;;;21.68;100.00
57763;BME280;43592;42.524;12.052;2023-05-31T06:39:45;96735.75;;;22.15;100.00
57763;BME280;43592;42.524;12.052;2023-05-31T06:42:11;96736.09;;;22.45;100.00
57763;BME280;43592;42.524;12.052;2023-05-31T06:44:37;96737.28;;;22.67;100.00
57763;BME280;43592;42.524;12.052;2023-05-31T06:47:03;96746.09;;;22.98;100.00
57763;BME280;43592;42.524;12.052;2023-05-31T06:49:28;96733.59;;;23.21;100.00
57763;BME280;43592;42.524;12.052;2023-05-31T06:51:54;96731.97;;;23.43;100.00
57763;BME280;43592;42.524;12.052;2023-05-31T06:54:19;96729.22;;;23.63;100.00
57763;BME280;43592;42.524;12.052;2023-05-31T06:56:45;96729.06;;;23.34;100.00
57763;BME280;43592;42.524;12.052;2023-05-31T06:59:10;96722.97;;;23.06;100.00
57763;BME280;43592;42.524;12.052;2023-05-31T07:01:36;96727.47;;;22.73;100.00
57763;BME280;43592;42.524;12.052;2023-05-31T07:04:01;96727.53;;;22.23;100.00
57763;BME280;43592;42.524;12.052;2023-05-31T07:06:27;96726.25;;;21.73;100.00
57763;BME280;43592;42.524;12.052;2023-05-31T07:08:53;96723.22;;;21.37;100.00
57763;BME280;43592;42.524;12.052;2023-05-31T07:11:18;96726.84;;;21.23;100.00
57763;BME280;43592;42.524;12.052;2023-05-31T07:13:44;96727.31;;;21.18;100.00
57763;BME280;43592;42.524;12.052;2023-05-31T07:16:09;96717.41;;;21.35;100.00
57763;BME280;43592;42.524;12.052;2023-05-31T07:18:35;96719.94;;;21.52;100.00
57763;BME280;43592;42.524;12.052;2023-05-31T07:21:00;96708.63;;;21.54;100.00
57763;BME280;43592;42.524;12.052;2023-05-31T07:23:26;96716.31;;;21.63;100.00
57763;BME280;43592;42.524;12.052;2023-05-31T07:25:51;96712.13;;;21.82;100.00
57763;BME280;43592;42.524;12.052;2023-05-31T07:28:17;96720.56;;;21.91;100.00
57763;BME280;43592;42.524;12.052;2023-05-31T07:30:42;96717.75;;;22.49;100.00
57763;BME280;43592;42.524;12.052;2023-05-31T07:33:08;96707.31;;;23.11;100.00
57763;BME280;43592;42.524;12.052;2023-05-31T07:35:33;96708.66;;;23.59;100.00
57763;BME280;43592;42.524;12.052;2023-05-31T07:37:59;96702.97;;;23.49;100.00
57763;BME280;43592;42.524;12.052;2023-05-31T07:40:24;96706.25;;;23.04;100.00
57763;BME280;43592;42.524;12.052;2023-05-31T07:42:49;96717.22;;;22.57;100.00
57763;BME280;43592;42.524;12.052;2023-05-31T07:45:15;96713.97;;;22.15;100.00
57763;BME280;43592;42.524;12.052;2023-05-31T07:47:41;96720.56;;;21.91;100.00
57763;BME280;43592;42.524;12.052;2023-05-31T07:50:07;96718.09;;;22.00;100.00
57763;BME280;43592;42.524;12.052;2023-05-31T07:52:32;96722.13;;;22.42;100.00
57763;BME280;43592;42.524;12.052;2023-05-31T07:54:58;96724.94;;;23.06;100.00
57763;BME280;43592;42.524;12.052;2023-05-31T07:57:23;96712.78;;;23.67;97.51
57763;BME280;43592;42.524;12.052;2023-05-31T07:59:49;96718.16;;;24.23;99.47
57763;BME280;43592;42.524;12.052;2023-05-31T08:02:15;96705.56;;;24.75;92.62
57763;BME280;43592;42.524;12.052;2023-05-31T08:04:41;96706.47;;;25.14;93.69
57763;BME280;43592;42.524;12.052;2023-05-31T08:07:06;96709.44;;;25.48;85.21
57763;BME280;43592;42.524;12.052;2023-05-31T08:09:32;96711.31;;;25.64;85.93
57763;BME280;43592;42.524;12.052;2023-05-31T08:11:58;96709.41;;;25.90;81.15
57763;BME280;43592;42.524;12.052;2023-05-31T08:14:23;96713.09;;;26.09;80.31
57763;BME280;43592;42.524;12.052;2023-05-31T08:16:48;96709.91;;;26.24;77.43
57763;BME280;43592;42.524;12.052;2023-05-31T08:19:14;96709.22;;;26.32;75.08
57763;BME280;43592;42.524;12.052;2023-05-31T08:21:40;96711.38;;;26.63;74.24
57763;BME280;43592;42.524;12.052;2023-05-31T08:24:05;96708.03;;;26.81;71.38
57763;BME280;43592;42.524;12.052;2023-05-31T08:26:31;96699.25;;;27.08;69.61
57763;BME280;43592;42.524;12.052;2023-05-31T08:28:58;96701.56;;;27.09;70.85
57763;BME280;43592;42.524;12.052;2023-05-31T08:31:23;96689.97;;;27.15;71.47
57763;BME280;43592;42.524;12.052;2023-05-31T08:36:43;96689.59;;;27.03;70.26
57763;BME280;43592;42.524;12.052;2023-05-31T08:39:09;96688.91;;;27.12;70.42
57763;BME280;43592;42.524;12.052;2023-05-31T08:41:38;96683.78;;;27.45;68.31
57763;BME280;43592;42.524;12.052;2023-05-31T08:44:07;96685.69;;;27.58;64.86
57763;BME280;43592;42.524;12.052;2023-05-31T08:46:33;96678.97;;;27.59;62.20
57763;BME280;43592;42.524;12.052;2023-05-31T08:49:05;96683.22;;;27.60;65.09
57763;BME280;43592;42.524;12.052;2023-05-31T08:51:34;96668.00;;;27.68;62.31
57763;BME280;43592;42.524;12.052;2023-05-31T08:54:02;96678.34;;;27.86;66.61
57763;BME280;43592;42.524;12.052;2023-05-31T08:56:27;96667.69;;;27.97;65.58
57763;BME280;43592;42.524;12.052;2023-05-31T08:58:53;96666.94;;;28.06;62.65
57763;BME280;43592;42.524;12.052;2023-05-31T09:01:19;96682.72;;;28.14;64.96
57763;BME280;43592;42.524;12.052;2023-05-31T09:03:45;96673.41;;;28.21;60.93
57763;BME280;43592;42.524;12.052;2023-05-31T09:06:11;96666.66;;;28.13;60.06
57763;BME280;43592;42.524;12.052;2023-05-31T09:08:36;96685.13;;;28.03;61.53
57763;BME280;43592;42.524;12.052;2023-05-31T09:11:02;96671.22;;;28.07;61.23
57763;BME280;43592;42.524;12.052;2023-05-31T09:13:29;96669.94;;;27.89;62.96
57763;BME280;43592;42.524;12.052;2023-05-31T09:15:54;96671.81;;;28.02;63.21
57763;BME280;43592;42.524;12.052;2023-05-31T09:18:21;96675.22;;;28.15;59.88
57763;BME280;43592;42.524;12.052;2023-05-31T09:20:47;96668.56;;;27.94;58.50
57763;BME280;43592;42.524;12.052;2023-05-31T09:23:13;96673.19;;;27.97;58.82
57763;BME280;43592;42.524;12.052;2023-05-31T09:25:43;96673.09;;;27.79;60.10
57763;BME280;43592;42.524;12.052;2023-05-31T09:28:08;96677.16;;;27.65;60.68
57763;BME280;43592;42.524;12.052;2023-05-31T09:30:35;96670.56;;;27.62;63.09
57763;BME280;43592;42.524;12.052;2023-05-31T09:33:01;96661.53;;;27.52;64.23
57763;BME280;43592;42.524;12.052;2023-05-31T09:35:26;96670.53;;;27.22;62.91
57763;BME280;43592;42.524;12.052;2023-05-31T09:37:52;96667.91;;;27.18;71.48
57763;BME280;43592;42.524;12.052;2023-05-31T09:40:25;96669.16;;;27.04;63.69
57763;BME280;43592;42.524;12.052;2023-05-31T09:42:51;96663.16;;;26.97;67.05
57763;BME280;43592;42.524;12.052;2023-05-31T09:45:18;96670.63;;;26.96;65.50
57763;BME280;43592;42.524;12.052;2023-05-31T09:47:43;96670.38;;;26.81;66.16
57763;BME280;43592;42.524;12.052;2023-05-31T09:50:10;96665.13;;;26.74;71.65
57763;BME280;43592;42.524;12.052;2023-05-31T09:52:35;96675.78;;;26.72;69.27
57763;BME280;43592;42.524;12.052;2023-05-31T09:55:04;96666.53;;;26.79;69.48
57763;BME280;43592;42.524;12.052;2023-05-31T09:57:33;96660.59;;;26.80;67.44
57763;BME280;43592;42.524;12.052;2023-05-31T10:00:08;96669.16;;;26.82;70.95
57763;BME280;43592;42.524;12.052;2023-05-31T10:02:49;96663.41;;;26.68;67.66
57763;BME280;43592;42.524;12.052;2023-05-31T10:05:16;96660.13;;;26.60;70.16
57763;BME280;43592;42.524;12.052;2023-05-31T10:07:42;96673.78;;;26.51;73.24
57763;BME280;43592;42.524;12.052;2023-05-31T10:10:08;96664.94;;;26.69;73.82
57763;BME280;43592;42.524;12.052;2023-05-31T10:12:34;96669.34;;;26.88;72.55
57763;BME280;43592;42.524;12.052;2023-05-31T10:15:02;96667.25;;;26.92;69.34
57763;BME280;43592;42.524;12.052;2023-05-31T10:17:33;96675.66;;;26.76;68.87
57763;BME280;43592;42.524;12.052;2023-05-31T10:20:02;96667.03;;;26.64;74.93
57763;BME280;43592;42.524;12.052;2023-05-31T10:22:33;96672.22;;;26.50;75.65
57763;BME280;43592;42.524;12.052;2023-05-31T10:25:09;96661.91;;;26.41;72.26
57763;BME280;43592;42.524;12.052;2023-05-31T10:27:37;96665.88;;;26.40;78.67
57763;BME280;43592;42.524;12.052;2023-05-31T10:30:04;96657.91;;;26.33;69.90
57763;BME280;43592;42.524;12.052;2023-05-31T10:32:34;96664.69;;;26.28;77.01
57763;BME280;43592;42.524;12.052;2023-05-31T10:35:00;96651.81;;;26.38;75.79
57763;BME280;43592;42.524;12.052;2023-05-31T10:37:27;96660.06;;;26.51;76.64
57763;BME280;43592;42.524;12.052;2023-05-31T10:39:54;96659.69;;;26.61;74.18
57763;BME280;43592;42.524;12.052;2023-05-31T10:47:35;96661.50;;;26.99;72.21
57763;BME280;43592;42.524;12.052;2023-05-31T10:50:02;96668.22;;;26.98;70.73
57763;BME280;43592;42.524;12.052;2023-05-31T10:52:29;96661.16;;;26.97;73.50
57763;BME280;43592;42.524;12.052;2023-05-31T10:55:14;96657.91;;;27.12;67.57
57763;BME280;43592;42.524;12.052;2023-05-31T10:57:40;96655.69;;;27.19;66.47
57763;BME280;43592;42.524;12.052;2023-05-31T11:00:05;96659.34;;;27.16;63.38
57763;BME280;43592;42.524;12.052;2023-05-31T11:02:33;96648.59;;;27.31;68.49
57763;BME280;43592;42.524;12.052;2023-05-31T11:05:17;96652.59;;;27.39;69.79
57763;BME280;43592;42.524;12.052;2023-05-31T11:07:43;96638.78;;;27.52;69.16
57763;BME280;43592;42.524;12.052;2023-05-31T11:10:08;96641.78;;;27.45;63.65
57763;BME280;43592;42.524;12.052;2023-05-31T11:12:36;96636.78;;;27.43;63.26
57763;BME280;43592;42.524;12.052;2023-05-31T11:15:03;96646.72;;;27.50;60.18
57763;BME280;43592;42.524;12.052;2023-05-31T11:17:29;96643.50;;;27.51;70.43
57763;BME280;43592;42.524;12.052;2023-05-31T11:20:03;96639.22;;;27.50;68.01
57763;BME280;43592;42.524;12.052;2023-05-31T11:22:30;96636.34;;;27.54;68.41
57763;BME280;43592;42.524;12.052;2023-05-31T11:24:55;96631.31;;;27.52;70.27
57763;BME280;43592;42.524;12.052;2023-05-31T11:27:23;96629.47;;;27.49;69.79
57763;BME280;43592;42.524;12.052;2023-05-31T11:29:58;96625.22;;;27.58;73.84
57763;BME280;43592;42.524;12.052;2023-05-31T11:35:03;96616.28;;;27.75;76.41
57763;BME280;43592;42.524;12.052;2023-05-31T11:37:29;96629.47;;;27.90;70.00
57763;BME280;43592;42.524;12.052;2023-05-31T11:39:59;96623.38;;;27.95;71.08
57763;BME280;43592;42.524;12.052;2023-05-31T11:42:25;96618.47;;;27.90;70.47
57763;BME280;43592;42.524;12.052;2023-05-31T11:44:55;96617.94;;;27.73;64.24
57763;BME280;43592;42.524;12.052;2023-05-31T11:47:22;96616.63;;;27.46;61.76
57763;BME280;43592;42.524;12.052;2023-05-31T11:49:50;96607.75;;;27.42;74.26
57763;BME280;43592;42.524;12.052;2023-05-31T11:52:16;96603.78;;;27.43;71.99
57763;BME280;43592;42.524;12.052;2023-05-31T11:54:42;96608.75;;;27.58;70.38
57763;BME280;43592;42.524;12.052;2023-05-31T11:57:09;96605.72;;;27.74;65.30
57763;BME280;43592;42.524;12.052;2023-05-31T11:59:36;96595.09;;;27.85;59.30
57763;BME280;43592;42.524;12.052;2023-05-31T12:02:03;96597.69;;;27.48;55.21
57763;BME280;43592;42.524;12.052;2023-05-31T12:04:32;96599.34;;;27.46;66.44
57763;BME280;43592;42.524;12.052;2023-05-31T12:06:58;96600.25;;;27.43;64.36
57763;BME280;43592;42.524;12.052;2023-05-31T12:09:24;96594.31;;;27.44;63.50
57763;BME280;43592;42.524;12.052;2023-05-31T12:11:50;96592.72;;;27.25;67.51
57763;BME280;43592;42.524;12.052;2023-05-31T12:14:16;96588.25;;;26.96;71.36
57763;BME280;43592;42.524;12.052;2023-05-31T12:16:41;96596.50;;;26.52;64.55
57763;BME280;43592;42.524;12.052;2023-05-31T12:19:13;96593.22;;;26.10;68.66
57763;BME280;43592;42.524;12.052;2023-05-31T12:21:38;96592.94;;;25.69;64.98
57763;BME280;43592;42.524;12.052;2023-05-31T12:24:10;96593.28;;;25.46;68.84
57763;BME280;43592;42.524;12.052;2023-05-31T12:26:36;96589.34;;;25.47;69.93
57763;BME280;43592;42.524;12.052;2023-05-31T12:31:37;96593.69;;;25.70;68.25
57763;BME280;43592;42.524;12.052;2023-05-31T12:39:06;96571.25;;;25.62;68.50
57763;BME280;43592;42.524;12.052;2023-05-31T12:41:32;96573.00;;;25.56;71.30
57763;BME280;43592;42.524;12.052;2023-05-31T12:43:58;96570.50;;;25.49;69.82
57763;BME280;43592;42.524;12.052;2023-05-31T12:46:23;96566.13;;;25.51;70.88
57763;BME280;43592;42.524;12.052;2023-05-31T12:48:49;96565.91;;;25.46;71.16
57763;BME280;43592;42.524;12.052;2023-05-31T12:51:23;96564.56;;;25.25;70.41
57763;BME280;43592;42.524;12.052;2023-05-31T12:56:18;96575.09;;;24.72;66.58
57763;BME280;43592;42.524;12.052;2023-05-31T13:03:53;96570.22;;;23.72;69.48
57763;BME280;43592;42.524;12.052;2023-05-31T13:08:53;96575.13;;;23.28;71.25
57763;BME280;43592;42.524;12.052;2023-05-31T13:11:19;96582.09;;;23.13;72.61
57763;BME280;43592;42.524;12.052;2023-05-31T13:13:44;96586.78;;;22.92;71.85
57763;BME280;43592;42.524;12.052;2023-05-31T13:16:10;96589.53;;;22.72;73.37
57763;BME280;43592;42.524;12.052;2023-05-31T13:18:36;96584.72;;;22.60;73.12